createdAt,value
2022-08-01T00:00:10.016Z,17.66
2022-08-01T00:02:40.789Z,17.69
2022-08-01T00:05:09.048Z,17.72
2022-08-01T00:07:36.057Z,17.63
2022-08-01T00:10:05.379Z,17.63
2022-08-01T00:12:32.608Z,17.61
2022-08-01T00:15:00.133Z,17.58
2022-08-01T00:17:28.061Z,17.66
2022-08-01T00:19:55.140Z,17.57
2022-08-01T00:22:22.445Z,17.54
2022-08-01T00:24:50.552Z,17.54
2022-08-01T00:27:18.581Z,17.48
2022-08-01T00:30:12.078Z,17.44
2022-08-01T00:35:55.866Z,17.42
2022-08-01T00:38:25.537Z,17.40
2022-08-01T00:41:22.312Z,17.45
2022-08-01T00:44:34.152Z,17.45
2022-08-01T00:47:05.556Z,17.38
2022-08-01T00:49:37.696Z,17.50
2022-08-01T00:52:09.605Z,17.39
2022-08-01T00:54:51.972Z,17.37
2022-08-01T00:58:03.503Z,17.34
2022-08-01T01:00:18.576Z,17.38
2022-08-01T01:02:59.053Z,17.34
2022-08-01T01:05:28.600Z,17.38
2022-08-01T01:08:03.802Z,17.33
2022-08-01T01:11:11.528Z,17.31
2022-08-01T01:13:57.780Z,17.34
2022-08-01T01:16:27.489Z,17.30
2022-08-01T01:19:32.966Z,17.32
2022-08-01T01:22:51.551Z,17.24
2022-08-01T01:25:51.041Z,17.27
2022-08-01T01:28:45.299Z,17.24
2022-08-01T01:31:31.959Z,17.22
2022-08-01T01:34:29.984Z,17.28
2022-08-01T01:37:35.866Z,17.28
2022-08-01T01:40:35.238Z,17.22
2022-08-01T01:43:20.898Z,17.16
2022-08-01T01:46:06.951Z,17.16
2022-08-01T01:48:54.431Z,17.17
2022-08-01T01:51:33.532Z,17.17
2022-08-01T01:54:03.260Z,17.23
2022-08-01T01:56:37.023Z,17.17
2022-08-01T01:59:04.233Z,17.14
2022-08-01T02:02:06.148Z,17.13
2022-08-01T02:04:39.629Z,17.09
2022-08-01T02:07:31.362Z,17.08
2022-08-01T02:10:13.212Z,17.03
2022-08-01T02:12:43.452Z,16.99
2022-08-01T02:15:17.600Z,16.97
2022-08-01T02:18:13.762Z,16.98
2022-08-01T02:20:43.351Z,16.96
2022-08-01T02:23:38.078Z,16.93
2022-08-01T02:26:11.650Z,16.91
2022-08-01T02:28:54.626Z,16.93
2022-08-01T02:31:34.285Z,16.94
2022-08-01T02:34:08.902Z,17.01
2022-08-01T02:36:42.180Z,16.95
2022-08-01T02:39:20.342Z,16.94
2022-08-01T02:41:51.823Z,16.90
2022-08-01T02:44:35.757Z,16.86
2022-08-01T02:47:20.024Z,16.84
2022-08-01T02:49:53.862Z,16.81
2022-08-01T02:52:25.892Z,16.89
2022-08-01T02:55:17.777Z,16.87
2022-08-01T02:57:52.467Z,16.85
2022-08-01T03:00:41.765Z,16.84
2022-08-01T03:03:18.341Z,16.82
2022-08-01T03:05:58.672Z,16.81
2022-08-01T03:08:42.970Z,16.82
2022-08-01T03:11:12.752Z,16.80
2022-08-01T03:13:48.170Z,16.81
2022-08-01T03:16:18.225Z,16.84
2022-08-01T03:19:03.170Z,16.80
2022-08-01T03:21:41.699Z,16.76
2022-08-01T03:24:14.775Z,16.72
2022-08-01T03:26:45.251Z,16.74
2022-08-01T03:29:21.329Z,16.73
2022-08-01T03:31:54.167Z,16.73
2022-08-01T03:34:23.945Z,16.72
2022-08-01T03:37:01.811Z,16.71
2022-08-01T03:39:32.859Z,16.72
2022-08-01T03:42:05.538Z,16.71
2022-08-01T03:44:36.622Z,16.71
2022-08-01T03:47:07.768Z,16.74
2022-08-01T03:49:38.740Z,16.75
2022-08-01T03:52:08.403Z,16.79
2022-08-01T03:54:39.272Z,16.83
2022-08-01T03:57:08.608Z,16.75
2022-08-01T03:59:48.439Z,16.75
2022-08-01T04:02:16.016Z,16.72
2022-08-01T04:04:42.924Z,16.74
2022-08-01T04:07:23.815Z,16.73
2022-08-01T04:09:50.647Z,16.72
2022-08-01T04:12:17.397Z,16.76
2022-08-01T04:14:44.357Z,16.71
2022-08-01T04:17:12.544Z,16.74
2022-08-01T04:19:40.743Z,16.74
2022-08-01T04:22:09.122Z,16.71
2022-08-01T04:24:36.730Z,16.69
2022-08-01T04:27:07.160Z,16.72
2022-08-01T04:29:35.880Z,16.73
2022-08-01T04:32:04.174Z,16.78
2022-08-01T04:34:34.134Z,16.76
2022-08-01T04:37:03.084Z,16.82
2022-08-01T04:39:32.646Z,16.78
2022-08-01T04:42:03.771Z,16.81
2022-08-01T04:44:34.296Z,16.80
2022-08-01T04:47:04.142Z,16.81
2022-08-01T04:49:48.727Z,16.88
2022-08-01T04:52:22.950Z,16.88
2022-08-01T04:54:51.390Z,16.92
2022-08-01T04:57:18.024Z,16.90
2022-08-01T04:59:45.167Z,16.97
2022-08-01T05:02:11.691Z,16.98
2022-08-01T05:04:39.464Z,17.00
2022-08-01T05:07:07.035Z,16.95
2022-08-01T05:09:37.149Z,16.98
2022-08-01T05:12:05.871Z,17.04
2022-08-01T05:14:33.610Z,17.04
2022-08-01T05:17:04.562Z,17.04
2022-08-01T05:19:36.314Z,17.15
2022-08-01T05:22:06.525Z,17.16
2022-08-01T05:24:35.878Z,17.17
2022-08-01T05:27:05.240Z,17.32
2022-08-01T05:29:34.521Z,17.57
2022-08-01T05:32:01.249Z,17.69
2022-08-01T05:34:28.098Z,17.80
2022-08-01T05:36:57.975Z,17.85
2022-08-01T05:39:24.761Z,17.82
2022-08-01T05:41:51.689Z,17.75
2022-08-01T05:44:18.798Z,17.76
2022-08-01T05:46:46.024Z,17.72
2022-08-01T05:49:13.223Z,17.67
2022-08-01T05:51:39.983Z,17.75
2022-08-01T05:54:06.990Z,17.83
2022-08-01T05:56:34.355Z,17.83
2022-08-01T05:59:01.167Z,17.88
2022-08-01T06:01:27.852Z,17.80
2022-08-01T06:03:58.283Z,17.69
2022-08-01T06:06:26.454Z,17.67
2022-08-01T06:08:53.441Z,17.64
2022-08-01T06:11:20.109Z,17.62
2022-08-01T06:13:48.459Z,17.56
2022-08-01T06:16:17.259Z,17.48
2022-08-01T06:18:44.646Z,17.59
2022-08-01T06:21:12.944Z,17.53
2022-08-01T06:23:43.794Z,17.53
2022-08-01T06:26:11.355Z,17.57
2022-08-01T06:28:39.597Z,17.56
2022-08-01T06:31:06.829Z,17.42
2022-08-01T06:33:34.787Z,17.30
2022-08-01T06:36:01.873Z,17.23
2022-08-01T06:38:28.678Z,17.29
2022-08-01T06:40:55.513Z,17.36
2022-08-01T06:43:22.474Z,17.42
2022-08-01T06:45:49.689Z,17.40
2022-08-01T06:48:16.590Z,17.51
2022-08-01T06:50:43.346Z,17.72
2022-08-01T06:53:10.262Z,17.73
2022-08-01T06:55:37.096Z,17.59
2022-08-01T06:58:03.983Z,17.51
2022-08-01T07:00:30.953Z,17.51
2022-08-01T07:02:59.653Z,17.51
2022-08-01T07:05:26.959Z,17.65
2022-08-01T07:07:54.078Z,17.73
2022-08-01T07:10:21.034Z,17.85
2022-08-01T07:12:47.894Z,17.76
2022-08-01T07:15:14.728Z,17.63
2022-08-01T07:17:42.673Z,17.68
2022-08-01T07:20:11.406Z,17.89
2022-08-01T07:22:38.832Z,18.11
2022-08-01T07:25:06.654Z,18.36
2022-08-01T07:27:34.008Z,18.65
2022-08-01T07:30:00.968Z,19.60
2022-08-01T07:32:28.030Z,19.61
2022-08-01T07:34:54.751Z,20.14
2022-08-01T07:37:46.131Z,20.17
2022-08-01T07:40:08.885Z,19.71
2022-08-01T07:42:35.935Z,19.27
2022-08-01T07:45:02.728Z,19.22
2022-08-01T07:47:29.546Z,18.76
2022-08-01T07:50:04.026Z,18.74
2022-08-01T07:52:31.473Z,18.76
2022-08-01T07:55:00.973Z,18.71
2022-08-01T07:57:27.846Z,18.55
2022-08-01T07:59:54.716Z,18.18
2022-08-01T08:02:21.542Z,18.11
2022-08-01T08:04:49.296Z,18.31
2022-08-01T08:07:16.635Z,18.55
2022-08-01T08:09:43.421Z,19.04
2022-08-01T08:12:10.698Z,19.45
2022-08-01T08:14:38.244Z,19.71
2022-08-01T08:17:06.366Z,20.19
2022-08-01T08:19:38.346Z,20.01
2022-08-01T08:22:07.980Z,20.16
2022-08-01T08:24:36.072Z,19.98
2022-08-01T08:27:03.649Z,20.00
2022-08-01T08:29:33.510Z,19.62
2022-08-01T08:32:01.375Z,19.33
2022-08-01T08:34:29.131Z,19.66
2022-08-01T08:36:57.117Z,19.58
2022-08-01T08:39:26.161Z,19.61
2022-08-01T08:41:53.288Z,19.68
2022-08-01T08:44:25.401Z,19.80
2022-08-01T08:46:53.662Z,19.66
2022-08-01T08:49:27.890Z,20.19
2022-08-01T08:52:08.926Z,21.38
2022-08-01T08:54:39.337Z,21.82
2022-08-01T08:57:08.151Z,21.48
2022-08-01T08:59:36.608Z,20.32
2022-08-01T09:02:07.902Z,20.49
2022-08-01T09:04:36.582Z,20.33
2022-08-01T09:07:06.140Z,20.58
2022-08-01T09:09:33.729Z,21.07
2022-08-01T09:12:00.951Z,21.32
2022-08-01T09:14:31.629Z,21.12
2022-08-01T09:17:11.913Z,21.12
2022-08-01T09:19:41.615Z,20.86
2022-08-01T09:22:15.285Z,20.99
2022-08-01T09:24:43.788Z,21.38
2022-08-01T09:27:23.119Z,21.86
2022-08-01T09:30:01.803Z,21.41
2022-08-01T09:32:36.283Z,21.56
2022-08-01T09:35:30.409Z,21.17
2022-08-01T09:38:17.971Z,21.16
2022-08-01T09:40:55.618Z,20.58
2022-08-01T09:43:27.295Z,20.74
2022-08-01T09:45:55.541Z,20.91
2022-08-01T09:48:28.826Z,21.09
2022-08-01T09:51:00.831Z,21.72
2022-08-01T09:53:52.077Z,22.56
2022-08-01T09:56:21.860Z,22.44
2022-08-01T09:59:00.376Z,22.69
2022-08-01T10:01:37.343Z,22.32
2022-08-01T10:04:17.490Z,22.33
2022-08-01T10:06:50.959Z,21.81
2022-08-01T10:09:39.897Z,21.23
2022-08-01T10:12:15.858Z,20.52
2022-08-01T10:14:46.320Z,20.37
2022-08-01T10:17:18.171Z,20.42
2022-08-01T10:19:46.678Z,20.52
2022-08-01T10:22:18.411Z,20.57
2022-08-01T10:24:48.600Z,20.63
2022-08-01T10:27:21.458Z,20.58
2022-08-01T10:30:19.688Z,20.85
2022-08-01T10:32:55.592Z,20.64
2022-08-01T10:35:47.519Z,20.88
2022-08-01T10:38:13.926Z,21.12
2022-08-01T10:40:43.071Z,21.30
2022-08-01T10:43:21.186Z,21.34
2022-08-01T10:45:50.758Z,21.40
2022-08-01T10:48:39.323Z,21.40
2022-08-01T10:51:17.475Z,21.49
2022-08-01T10:53:57.014Z,21.53
2022-08-01T10:56:41.008Z,21.45
2022-08-01T10:59:11.916Z,21.37
2022-08-01T11:01:44.916Z,21.43
2022-08-01T11:04:17.715Z,21.96
2022-08-01T11:06:53.499Z,21.89
2022-08-01T11:09:51.994Z,22.09
2022-08-01T11:12:24.537Z,21.87
2022-08-01T11:15:02.423Z,21.92
2022-08-01T11:17:49.197Z,22.16
2022-08-01T11:20:46.182Z,21.79
2022-08-01T11:23:16.634Z,22.00
2022-08-01T11:25:58.351Z,21.61
2022-08-01T11:29:19.416Z,21.61
2022-08-01T11:31:48.509Z,21.57
2022-08-01T11:34:22.017Z,21.98
2022-08-01T11:38:00.309Z,22.02
2022-08-01T11:45:44.744Z,21.82
2022-08-01T11:52:30.902Z,21.84
2022-08-01T11:55:01.404Z,22.10
2022-08-01T11:57:49.690Z,22.35
2022-08-01T12:03:20.008Z,21.99
2022-08-01T12:05:55.010Z,22.35
2022-08-01T12:08:50.588Z,22.33
2022-08-01T12:11:59.358Z,22.16
2022-08-01T12:17:58.790Z,22.10
2022-08-01T12:21:08.530Z,21.96
2022-08-01T12:23:50.149Z,21.68
2022-08-01T12:26:32.275Z,21.68
2022-08-01T12:33:40.834Z,21.73
2022-08-01T12:36:39.517Z,21.94
2022-08-01T12:39:36.340Z,22.16
2022-08-01T12:42:08.692Z,21.94
2022-08-01T12:44:36.100Z,22.05
2022-08-01T12:47:04.886Z,22.37
2022-08-01T12:49:41.295Z,22.27
2022-08-01T12:52:13.145Z,22.73
2022-08-01T12:55:03.234Z,22.46
2022-08-01T12:57:33.810Z,22.71
2022-08-01T13:00:31.760Z,22.90
2022-08-01T13:03:33.025Z,23.12
2022-08-01T13:07:10.574Z,23.46
2022-08-01T13:10:30.058Z,23.10
2022-08-01T13:21:01.755Z,23.29
2022-08-01T13:27:11.390Z,22.96
2022-08-01T13:37:11.330Z,23.54
2022-08-01T13:51:21.913Z,22.24
2022-08-01T13:57:36.239Z,22.50
2022-08-01T14:00:35.356Z,23.21
2022-08-01T14:03:33.257Z,23.79
2022-08-01T14:06:28.647Z,23.29
2022-08-01T14:09:36.818Z,22.92
2022-08-01T14:12:26.970Z,23.46
2022-08-01T14:15:11.499Z,22.50
2022-08-01T14:17:50.378Z,22.51
2022-08-01T14:20:39.220Z,22.53
2022-08-01T14:23:16.764Z,22.98
2022-08-01T14:28:59.817Z,22.62
2022-08-01T14:31:34.506Z,22.45
2022-08-01T14:34:16.791Z,22.88
2022-08-01T14:36:59.635Z,22.81
2022-08-01T14:42:50.941Z,22.27
2022-08-01T14:46:02.434Z,22.51
2022-08-01T14:48:50.231Z,22.86
2022-08-01T14:51:41.610Z,22.80
2022-08-01T14:54:16.836Z,22.82
2022-08-01T14:57:00.631Z,23.22
2022-08-01T14:59:46.006Z,22.99
2022-08-01T15:05:17.507Z,22.95
2022-08-01T15:07:54.665Z,23.40
2022-08-01T15:17:26.909Z,23.22
2022-08-01T15:20:00.881Z,23.25
2022-08-01T15:25:23.465Z,23.15
2022-08-01T15:28:16.272Z,22.89
2022-08-01T15:30:52.741Z,23.07
2022-08-01T15:33:38.323Z,23.03
2022-08-01T15:36:46.224Z,22.86
2022-08-01T15:39:51.343Z,22.93
2022-08-01T15:42:46.910Z,22.48
2022-08-01T15:48:50.857Z,22.20
2022-08-01T15:51:21.201Z,22.35
2022-08-01T15:56:49.107Z,22.26
2022-08-01T15:59:16.123Z,22.30
2022-08-01T16:01:48.352Z,21.63
2022-08-01T16:04:29.668Z,22.22
2022-08-01T16:07:22.747Z,22.34
2022-08-01T16:09:53.950Z,22.40
2022-08-01T16:12:20.963Z,22.48
2022-08-01T16:15:41.600Z,22.57
2022-08-01T16:18:13.900Z,22.42
2022-08-01T16:20:46.849Z,22.37
2022-08-01T16:23:40.726Z,22.56
2022-08-01T16:26:25.944Z,22.77
2022-08-01T16:29:25.794Z,22.88
2022-08-01T16:32:43.609Z,22.90
2022-08-01T16:35:46.892Z,22.69
2022-08-01T16:38:35.383Z,22.69
2022-08-01T16:41:19.087Z,22.31
2022-08-01T16:43:53.923Z,22.13
2022-08-01T16:46:22.588Z,21.61
2022-08-01T16:48:49.387Z,21.27
2022-08-01T16:51:16.168Z,21.43
2022-08-01T16:53:42.920Z,21.41
2022-08-01T16:56:12.031Z,21.41
2022-08-01T16:58:38.882Z,21.33
2022-08-01T17:01:59.350Z,21.49
2022-08-01T17:03:54.855Z,21.87
2022-08-01T17:06:27.139Z,21.66
2022-08-01T17:08:56.671Z,21.49
2022-08-01T17:11:25.261Z,21.53
2022-08-01T17:13:51.950Z,21.32
2022-08-01T17:16:18.700Z,21.54
2022-08-01T17:18:45.540Z,21.28
2022-08-01T17:21:12.247Z,20.92
2022-08-01T17:23:39.048Z,20.88
2022-08-01T17:26:05.823Z,20.91
2022-08-01T17:28:32.691Z,20.96
2022-08-01T17:31:10.545Z,20.95
2022-08-01T17:33:44.735Z,20.75
2022-08-01T17:36:13.295Z,20.67
2022-08-01T17:38:39.971Z,20.81
2022-08-01T17:41:07.099Z,20.86
2022-08-01T17:43:33.795Z,21.02
2022-08-01T17:46:08.291Z,21.14
2022-08-01T17:48:35.053Z,21.48
2022-08-01T17:51:01.820Z,21.32
2022-08-01T17:53:28.702Z,21.35
2022-08-01T17:55:58.516Z,21.30
2022-08-01T17:58:49.957Z,21.19
2022-08-01T18:01:14.048Z,20.83
2022-08-01T18:03:41.795Z,20.60
2022-08-01T18:06:19.923Z,20.57
2022-08-01T18:09:03.272Z,20.17
2022-08-01T18:11:37.330Z,20.31
2022-08-01T18:14:06.897Z,20.15
2022-08-01T18:16:33.912Z,19.83
2022-08-01T18:19:05.190Z,19.65
2022-08-01T18:21:40.971Z,19.45
2022-08-01T18:24:09.802Z,19.41
2022-08-01T18:26:36.784Z,19.22
2022-08-01T18:29:11.623Z,19.23
2022-08-01T18:31:39.181Z,19.08
2022-08-01T18:34:05.921Z,18.96
2022-08-01T18:36:34.463Z,18.80
2022-08-01T18:39:10.026Z,18.72
2022-08-01T18:41:38.286Z,18.49
2022-08-01T18:44:15.643Z,18.30
2022-08-01T18:46:42.416Z,18.14
2022-08-01T18:49:11.431Z,17.96
2022-08-01T18:51:47.635Z,17.84
2022-08-01T18:54:15.133Z,17.57
2022-08-01T18:56:43.212Z,17.41
2022-08-01T18:59:17.311Z,17.28
2022-08-01T19:01:44.245Z,17.21
2022-08-01T19:04:11.751Z,17.13
2022-08-01T19:06:47.537Z,17.14
2022-08-01T19:09:14.561Z,17.09
2022-08-01T19:11:47.420Z,17.18
2022-08-01T19:14:17.621Z,17.21
2022-08-01T19:16:44.299Z,17.33
2022-08-01T19:19:11.055Z,17.39
2022-08-01T19:21:44.775Z,17.52
2022-08-01T19:24:17.569Z,17.55
2022-08-01T19:26:53.238Z,17.51
2022-08-01T19:29:21.056Z,17.49
2022-08-01T19:31:49.433Z,17.50
2022-08-01T19:34:18.612Z,17.49
2022-08-01T19:36:49.717Z,17.52
2022-08-01T19:39:23.755Z,17.50
2022-08-01T19:41:51.965Z,17.46
2022-08-01T19:44:20.792Z,17.42
2022-08-01T19:46:47.448Z,17.40
2022-08-01T19:49:15.312Z,17.37
2022-08-01T19:51:51.450Z,17.34
2022-08-01T19:54:19.543Z,17.29
2022-08-01T19:56:47.651Z,17.33
2022-08-01T19:59:23.085Z,17.38
2022-08-01T20:01:52.377Z,17.56
2022-08-01T20:04:19.521Z,17.53
2022-08-01T20:06:49.527Z,17.56
2022-08-01T20:09:16.328Z,17.69
2022-08-01T20:11:48.401Z,17.67
2022-08-01T20:14:22.131Z,17.71
2022-08-01T20:16:50.463Z,17.58
2022-08-01T20:19:18.593Z,17.55
2022-08-01T20:22:02.743Z,17.47
2022-08-01T20:24:40.936Z,17.47
2022-08-01T20:27:09.669Z,17.37
2022-08-01T20:29:36.643Z,17.19
2022-08-01T20:32:07.293Z,16.96
2022-08-01T20:34:39.785Z,16.85
2022-08-01T20:37:13.358Z,16.84
2022-08-01T20:39:46.092Z,16.69
2022-08-01T20:44:56.382Z,16.55
2022-08-01T20:47:24.622Z,16.30
2022-08-01T20:50:52.302Z,16.21
2022-08-01T20:53:09.439Z,15.99
2022-08-01T20:55:47.869Z,16.12
2022-08-01T20:58:27.190Z,16.14
2022-08-01T21:00:54.845Z,16.05
2022-08-01T21:03:24.013Z,16.06
2022-08-01T21:06:03.077Z,15.94
2022-08-01T21:08:36.787Z,15.83
2022-08-01T21:11:07.409Z,15.76
2022-08-01T21:13:40.839Z,15.78
2022-08-01T21:16:22.292Z,15.60
2022-08-01T21:19:18.978Z,15.47
2022-08-01T21:21:58.730Z,15.30
2022-08-01T21:24:29.214Z,15.14
2022-08-01T21:26:56.509Z,15.09
2022-08-01T21:29:24.419Z,15.01
2022-08-01T21:32:22.548Z,14.95
2022-08-01T21:34:51.215Z,14.85
2022-08-01T21:37:23.331Z,14.84
2022-08-01T21:39:53.018Z,14.74
2022-08-01T21:42:35.570Z,14.68
2022-08-01T21:45:02.859Z,14.61
2022-08-01T21:47:30.064Z,14.57
2022-08-01T21:50:02.587Z,14.56
2022-08-01T21:52:37.123Z,14.52
2022-08-01T21:55:22.940Z,14.46
2022-08-01T21:58:35.597Z,14.39
2022-08-01T22:01:21.631Z,14.39
2022-08-01T22:03:49.097Z,14.37
2022-08-01T22:06:16.903Z,14.31
2022-08-01T22:08:52.451Z,14.23
2022-08-01T22:11:25.614Z,14.24
2022-08-01T22:13:55.147Z,14.03
2022-08-01T22:16:26.141Z,14.12
2022-08-01T22:18:53.373Z,14.08
2022-08-01T22:21:20.273Z,14.00
2022-08-01T22:23:47.388Z,13.84
2022-08-01T22:26:14.073Z,13.64
2022-08-01T22:28:40.807Z,13.41
2022-08-01T22:31:07.863Z,13.25
2022-08-01T22:33:36.601Z,13.20
2022-08-01T22:36:05.095Z,13.09
2022-08-01T22:38:40.968Z,13.14
2022-08-01T22:41:18.061Z,13.06
2022-08-01T22:44:04.942Z,13.21
2022-08-01T22:47:04.478Z,13.18
2022-08-01T22:49:35.019Z,13.18
2022-08-01T22:52:14.655Z,13.05
2022-08-01T22:54:44.378Z,12.98
2022-08-01T22:57:14.680Z,12.96
2022-08-01T23:00:00.343Z,12.87
2022-08-01T23:02:31.212Z,12.76
2022-08-01T23:05:03.486Z,12.60
2022-08-01T23:07:34.682Z,12.56
2022-08-01T23:10:05.397Z,12.58
2022-08-01T23:12:32.555Z,12.56
2022-08-01T23:15:00.471Z,12.53
2022-08-01T23:17:29.786Z,12.52
2022-08-01T23:20:01.941Z,12.50
2022-08-01T23:22:34.978Z,12.64
2022-08-01T23:25:07.021Z,12.65
2022-08-01T23:27:54.110Z,12.58
2022-08-01T23:30:31.640Z,12.47
2022-08-01T23:32:58.915Z,12.39
2022-08-01T23:35:26.238Z,12.36
2022-08-01T23:37:55.833Z,12.29
2022-08-01T23:40:28.928Z,12.26
2022-08-01T23:42:55.936Z,12.23
2022-08-01T23:45:23.335Z,12.16
2022-08-01T23:47:50.295Z,12.06
2022-08-01T23:50:24.780Z,12.05
2022-08-01T23:52:55.390Z,11.98
2022-08-01T23:55:36.755Z,11.93
2022-08-01T23:58:10.287Z,11.94
